sensor_id;sensor_type;location;lat;lon;timestamp;pressure;altitude;pressure_sealevel;temperature;humidity
50057;BME280;36875;49.468;11.200;2024-02-15T00:01:17;98351.28;;;22.07;36.30
50057;BME280;36875;49.468;11.200;2024-02-15T00:03:44;98354.31;;;21.97;36.57
50057;BME280;36875;49.468;11.200;2024-02-15T00:06:09;98354.91;;;21.94;36.58
50057;BME280;36875;49.468;11.200;2024-02-15T00:08:35;98346.56;;;21.99;36.56
50057;BME280;36875;49.468;11.200;2024-02-15T00:11:00;98344.44;;;21.96;36.22
50057;BME280;36875;49.468;11.200;2024-02-15T00:13:25;98343.16;;;21.93;36.34
50057;BME280;36875;49.468;11.200;2024-02-15T00:15:51;98345.41;;;21.91;36.52
50057;BME280;36875;49.468;11.200;2024-02-15T00:18:17;98346.63;;;21.85;36.73
50057;BME280;36875;49.468;11.200;2024-02-15T00:20:44;98349.38;;;21.85;36.72
50057;BME280;36875;49.468;11.200;2024-02-15T00:23:10;98347.28;;;21.82;36.80
50057;BME280;36875;49.468;11.200;2024-02-15T00:25:37;98345.34;;;21.83;36.68
50057;BME280;36875;49.468;11.200;2024-02-15T00:28:03;98338.56;;;21.80;36.65
50057;BME280;36875;49.468;11.200;2024-02-15T00:30:28;98340.63;;;21.74;36.67
50057;BME280;36875;49.468;11.200;2024-02-15T00:32:54;98337.53;;;21.67;37.06
50057;BME280;36875;49.468;11.200;2024-02-15T00:35:19;98338.00;;;21.69;36.87
50057;BME280;36875;49.468;11.200;2024-02-15T00:37:46;98330.09;;;21.68;36.86
50057;BME280;36875;49.468;11.200;2024-02-15T00:40:12;98333.16;;;21.66;37.04
50057;BME280;36875;49.468;11.200;2024-02-15T00:42:37;98329.25;;;21.59;37.32
50057;BME280;36875;49.468;11.200;2024-02-15T00:45:03;98329.53;;;21.57;36.97
50057;BME280;36875;49.468;11.200;2024-02-15T00:47:28;98332.78;;;21.59;37.01
50057;BME280;36875;49.468;11.200;2024-02-15T00:49:54;98333.91;;;21.58;37.21
50057;BME280;36875;49.468;11.200;2024-02-15T00:52:19;98336.78;;;21.53;37.21
50057;BME280;36875;49.468;11.200;2024-02-15T00:54:46;98336.78;;;21.53;37.11
50057;BME280;36875;49.468;11.200;2024-02-15T00:57:11;98341.75;;;21.51;37.10
50057;BME280;36875;49.468;11.200;2024-02-15T00:59:36;98334.44;;;21.46;37.23
50057;BME280;36875;49.468;11.200;2024-02-15T01:02:02;98334.94;;;21.48;37.16
50057;BME280;36875;49.468;11.200;2024-02-15T01:04:28;98335.69;;;21.40;37.45
50057;BME280;36875;49.468;11.200;2024-02-15T01:06:53;98335.69;;;21.40;37.25
50057;BME280;36875;49.468;11.200;2024-02-15T01:09:18;98332.13;;;21.40;37.32
50057;BME280;36875;49.468;11.200;2024-02-15T01:11:45;98329.50;;;21.34;37.38
50057;BME280;36875;49.468;11.200;2024-02-15T01:14:11;98338.22;;;21.36;37.43
50057;BME280;36875;49.468;11.200;2024-02-15T01:16:36;98332.56;;;21.33;37.31
50057;BME280;36875;49.468;11.200;2024-02-15T01:19:01;98338.34;;;21.31;37.42
50057;BME280;36875;49.468;11.200;2024-02-15T01:21:27;98328.63;;;21.25;37.72
50057;BME280;36875;49.468;11.200;2024-02-15T01:23:52;98333.47;;;21.28;37.73
50057;BME280;36875;49.468;11.200;2024-02-15T01:26:19;98328.63;;;21.25;37.45
50057;BME280;36875;49.468;11.200;2024-02-15T01:28:45;98333.72;;;21.18;37.48
50057;BME280;36875;49.468;11.200;2024-02-15T01:31:11;98334.53;;;21.18;37.55
50057;BME280;36875;49.468;11.200;2024-02-15T01:33:36;98333.41;;;21.20;37.43
50057;BME280;36875;49.468;11.200;2024-02-15T01:36:02;98337.56;;;21.17;37.56
50057;BME280;36875;49.468;11.200;2024-02-15T01:38:27;98326.91;;;21.15;37.79
50057;BME280;36875;49.468;11.200;2024-02-15T01:40:52;98328.06;;;21.14;37.75
50057;BME280;36875;49.468;11.200;2024-02-15T01:43:17;98323.00;;;21.08;38.07
50057;BME280;36875;49.468;11.200;2024-02-15T01:45:44;98330.59;;;21.11;37.69
50057;BME280;36875;49.468;11.200;2024-02-15T01:48:12;98332.16;;;21.03;37.72
50057;BME280;36875;49.468;11.200;2024-02-15T01:50:37;98323.44;;;21.01;37.94
50057;BME280;36875;49.468;11.200;2024-02-15T01:53:03;98325.66;;;20.99;37.98
50057;BME280;36875;49.468;11.200;2024-02-15T01:55:30;98323.25;;;20.97;37.87
50057;BME280;36875;49.468;11.200;2024-02-15T01:57:55;98331.75;;;20.96;38.25
50057;BME280;36875;49.468;11.200;2024-02-15T02:00:20;98329.63;;;20.93;37.97
50057;BME280;36875;49.468;11.200;2024-02-15T02:02:48;98327.19;;;20.91;37.97
50057;BME280;36875;49.468;11.200;2024-02-15T02:05:13;98326.69;;;20.89;38.22
50057;BME280;36875;49.468;11.200;2024-02-15T02:07:39;98323.44;;;20.87;38.08
50057;BME280;36875;49.468;11.200;2024-02-15T02:10:04;98308.47;;;20.85;38.18
50057;BME280;36875;49.468;11.200;2024-02-15T02:12:30;98315.06;;;20.84;38.23
50057;BME280;36875;49.468;11.200;2024-02-15T02:14:56;98316.97;;;20.83;38.30
50057;BME280;36875;49.468;11.200;2024-02-15T02:17:21;98307.44;;;20.80;38.05
50057;BME280;36875;49.468;11.200;2024-02-15T02:19:51;98304.84;;;20.75;38.19
50057;BME280;36875;49.468;11.200;2024-02-15T02:22:17;98303.22;;;20.74;38.47
50057;BME280;36875;49.468;11.200;2024-02-15T02:24:51;98301.59;;;20.73;38.51
50057;BME280;36875;49.468;11.200;2024-02-15T02:27:17;98313.34;;;20.74;38.46
50057;BME280;36875;49.468;11.200;2024-02-15T02:29:43;98310.41;;;20.70;38.42
50057;BME280;36875;49.468;11.200;2024-02-15T02:32:11;98315.69;;;20.67;38.53
50057;BME280;36875;49.468;11.200;2024-02-15T02:34:36;98316.78;;;20.66;38.64
50057;BME280;36875;49.468;11.200;2024-02-15T02:37:02;98318.41;;;20.67;38.68
50057;BME280;36875;49.468;11.200;2024-02-15T02:39:30;98321.75;;;20.64;38.51
50057;BME280;36875;49.468;11.200;2024-02-15T02:41:58;98319.31;;;20.62;38.45
50057;BME280;36875;49.468;11.200;2024-02-15T02:44:23;98320.72;;;20.59;38.58
50057;BME280;36875;49.468;11.200;2024-02-15T02:46:48;98313.13;;;20.56;38.69
50057;BME280;36875;49.468;11.200;2024-02-15T02:49:13;98317.00;;;20.55;38.59
50057;BME280;36875;49.468;11.200;2024-02-15T02:51:39;98318.38;;;20.53;38.85
50057;BME280;36875;49.468;11.200;2024-02-15T02:54:04;98320.31;;;20.52;38.66
50057;BME280;36875;49.468;11.200;2024-02-15T02:56:31;98325.00;;;20.52;38.62
50057;BME280;36875;49.468;11.200;2024-02-15T02:58:58;98324.78;;;20.48;38.77
50057;BME280;36875;49.468;11.200;2024-02-15T03:01:23;98316.59;;;20.48;38.89
50057;BME280;36875;49.468;11.200;2024-02-15T03:03:51;98325.88;;;20.47;38.71
50057;BME280;36875;49.468;11.200;2024-02-15T03:06:17;98320.41;;;20.47;38.87
50057;BME280;36875;49.468;11.200;2024-02-15T03:08:42;98327.13;;;20.41;38.71
50057;BME280;36875;49.468;11.200;2024-02-15T03:11:08;98318.41;;;20.39;38.99
50057;BME280;36875;49.468;11.200;2024-02-15T03:13:33;98326.59;;;20.39;39.20
50057;BME280;36875;49.468;11.200;2024-02-15T03:16:00;98324.47;;;20.36;39.13
50057;BME280;36875;49.468;11.200;2024-02-15T03:18:25;98328.34;;;20.35;38.74
50057;BME280;36875;49.468;11.200;2024-02-15T03:20:50;98324.25;;;20.32;39.17
50057;BME280;36875;49.468;11.200;2024-02-15T03:23:15;98320.44;;;20.33;39.16
50057;BME280;36875;49.468;11.200;2024-02-15T03:25:41;98321.22;;;20.34;39.08
50057;BME280;36875;49.468;11.200;2024-02-15T03:28:06;98323.47;;;20.32;39.24
50057;BME280;36875;49.468;11.200;2024-02-15T03:30:32;98326.50;;;20.30;39.03
50057;BME280;36875;49.468;11.200;2024-02-15T03:33:00;98322.75;;;20.26;39.45
50057;BME280;36875;49.468;11.200;2024-02-15T03:35:25;98326.59;;;20.25;39.36
50057;BME280;36875;49.468;11.200;2024-02-15T03:37:51;98324.69;;;20.26;39.10
50057;BME280;36875;49.468;11.200;2024-02-15T03:40:17;98315.16;;;20.23;39.33
50057;BME280;36875;49.468;11.200;2024-02-15T03:42:42;98319.31;;;20.20;39.51
50057;BME280;36875;49.468;11.200;2024-02-15T03:45:08;98326.19;;;20.18;39.49
50057;BME280;36875;49.468;11.200;2024-02-15T03:47:34;98328.09;;;20.17;39.37
50057;BME280;36875;49.468;11.200;2024-02-15T03:50:02;98328.09;;;20.17;39.58
50057;BME280;36875;49.468;11.200;2024-02-15T03:52:27;98329.81;;;20.13;39.39
50057;BME280;36875;49.468;11.200;2024-02-15T03:54:55;98322.72;;;20.12;39.54
50057;BME280;36875;49.468;11.200;2024-02-15T03:57:20;98324.97;;;20.10;39.33
50057;BME280;36875;49.468;11.200;2024-02-15T03:59:46;98321.22;;;20.06;39.50
50057;BME280;36875;49.468;11.200;2024-02-15T04:02:15;98320.91;;;20.08;39.31
50057;BME280;36875;49.468;11.200;2024-02-15T04:04:40;98319.91;;;20.03;39.67
50057;BME280;36875;49.468;11.200;2024-02-15T04:07:09;98323.16;;;20.06;39.55
50057;BME280;36875;49.468;11.200;2024-02-15T04:09:37;98322.63;;;20.03;39.70
50057;BME280;36875;49.468;11.200;2024-02-15T04:12:02;98307.66;;;20.01;39.62
50057;BME280;36875;49.468;11.200;2024-02-15T04:14:27;98312.59;;;19.99;39.54
50057;BME280;36875;49.468;11.200;2024-02-15T04:16:53;98317.56;;;19.97;39.61
50057;BME280;36875;49.468;11.200;2024-02-15T04:19:18;98315.13;;;19.95;39.66
50057;BME280;36875;49.468;11.200;2024-02-15T04:21:47;98324.13;;;19.96;39.58
50057;BME280;36875;49.468;11.200;2024-02-15T04:24:13;98325.84;;;19.92;39.58
50057;BME280;36875;49.468;11.200;2024-02-15T04:26:39;98320.38;;;19.92;39.68
50057;BME280;36875;49.468;11.200;2024-02-15T04:29:05;98322.59;;;19.90;39.68
50057;BME280;36875;49.468;11.200;2024-02-15T04:31:33;98317.94;;;19.90;40.08
50057;BME280;36875;49.468;11.200;2024-02-15T04:34:02;98321.59;;;19.86;39.99
50057;BME280;36875;49.468;11.200;2024-02-15T04:36:28;98328.16;;;19.84;39.82
50057;BME280;36875;49.468;11.200;2024-02-15T04:38:58;98317.50;;;19.83;40.00
50057;BME280;36875;49.468;11.200;2024-02-15T04:41:25;98322.47;;;19.81;40.02
50057;BME280;36875;49.468;11.200;2024-02-15T04:43:50;98324.41;;;19.80;40.10
50057;BME280;36875;49.468;11.200;2024-02-15T04:46:17;98315.69;;;19.78;39.98
50057;BME280;36875;49.468;11.200;2024-02-15T04:48:45;98321.47;;;19.77;40.00
50057;BME280;36875;49.468;11.200;2024-02-15T04:51:11;98323.38;;;19.76;40.22
50057;BME280;36875;49.468;11.200;2024-02-15T04:53:36;98317.72;;;19.73;40.17
50057;BME280;36875;49.468;11.200;2024-02-15T04:56:03;98322.34;;;19.72;39.97
50057;BME280;36875;49.468;11.200;2024-02-15T04:58:36;98322.63;;;19.71;39.96
50057;BME280;36875;49.468;11.200;2024-02-15T05:01:01;98324.84;;;19.69;40.21
50057;BME280;36875;49.468;11.200;2024-02-15T05:03:29;98327.59;;;19.69;40.37
50057;BME280;36875;49.468;11.200;2024-02-15T05:05:55;98320.50;;;19.68;40.31
50057;BME280;36875;49.468;11.200;2024-02-15T05:08:20;98322.22;;;19.63;40.12
50057;BME280;36875;49.468;11.200;2024-02-15T05:10:45;98325.22;;;19.62;40.04
50057;BME280;36875;49.468;11.200;2024-02-15T05:13:11;98318.97;;;19.61;40.23
50057;BME280;36875;49.468;11.200;2024-02-15T05:15:40;98320.88;;;19.61;40.50
50057;BME280;36875;49.468;11.200;2024-02-15T05:18:05;98318.47;;;19.59;40.13
50057;BME280;36875;49.468;11.200;2024-02-15T05:20:33;98317.63;;;19.59;40.42
50057;BME280;36875;49.468;11.200;2024-02-15T05:22:59;98314.38;;;19.57;40.43
50057;BME280;36875;49.468;11.200;2024-02-15T05:25:24;98315.50;;;19.56;40.20
50057;BME280;36875;49.468;11.200;2024-02-15T05:27:52;98322.06;;;19.55;40.45
50057;BME280;36875;49.468;11.200;2024-02-15T05:30:18;98316.09;;;19.53;40.47
50057;BME280;36875;49.468;11.200;2024-02-15T05:32:45;98319.13;;;19.51;40.49
50057;BME280;36875;49.468;11.200;2024-02-15T05:35:10;98325.72;;;19.50;40.23
50057;BME280;36875;49.468;11.200;2024-02-15T05:37:36;98317.19;;;19.52;40.45
50057;BME280;36875;49.468;11.200;2024-02-15T05:40:02;98322.66;;;19.52;40.46
50057;BME280;36875;49.468;11.200;2024-02-15T05:42:27;98319.91;;;19.52;40.58
50057;BME280;36875;49.468;11.200;2024-02-15T05:44:53;98320.47;;;19.54;40.69
50057;BME280;36875;49.468;11.200;2024-02-15T05:47:18;98319.03;;;19.56;40.70
50057;BME280;36875;49.468;11.200;2024-02-15T05:49:46;98315.41;;;19.61;40.62
50057;BME280;36875;49.468;11.200;2024-02-15T05:52:12;98317.84;;;19.62;40.70
50057;BME280;36875;49.468;11.200;2024-02-15T05:54:37;98320.97;;;19.56;41.14
50057;BME280;36875;49.468;11.200;2024-02-15T05:57:04;98315.59;;;19.51;41.29
50057;BME280;36875;49.468;11.200;2024-02-15T05:59:30;98312.94;;;19.45;41.32
50057;BME280;36875;49.468;11.200;2024-02-15T06:01:55;98315.66;;;19.45;41.31
50057;BME280;36875;49.468;11.200;2024-02-15T06:04:20;98309.13;;;19.47;41.61
50057;BME280;36875;49.468;11.200;2024-02-15T06:06:49;98314.03;;;19.44;41.59
50057;BME280;36875;49.468;11.200;2024-02-15T06:09:15;98325.72;;;19.50;41.54
50057;BME280;36875;49.468;11.200;2024-02-15T06:11:41;98329.47;;;19.54;41.71
50057;BME280;36875;49.468;11.200;2024-02-15T06:14:06;98329.06;;;19.61;41.42
50057;BME280;36875;49.468;11.200;2024-02-15T06:16:31;98331.78;;;19.61;41.47
50057;BME280;36875;49.468;11.200;2024-02-15T06:18:57;98332.84;;;19.65;41.53
50057;BME280;36875;49.468;11.200;2024-02-15T06:21:22;98332.72;;;19.70;41.23
50057;BME280;36875;49.468;11.200;2024-02-15T06:23:50;98339.78;;;19.76;41.40
50057;BME280;36875;49.468;11.200;2024-02-15T06:26:16;98343.00;;;19.78;41.43
50057;BME280;36875;49.468;11.200;2024-02-15T06:28:41;98330.78;;;19.90;41.38
50057;BME280;36875;49.468;11.200;2024-02-15T06:31:25;98337.47;;;19.97;42.10
50057;BME280;36875;49.468;11.200;2024-02-15T06:34:09;98344.16;;;20.05;42.16
50057;BME280;36875;49.468;11.200;2024-02-15T06:36:53;98344.06;;;19.96;42.22
50057;BME280;36875;49.468;11.200;2024-02-15T06:39:38;98342.56;;;20.04;42.16
50057;BME280;36875;49.468;11.200;2024-02-15T06:42:06;98341.97;;;20.07;42.09
50057;BME280;36875;49.468;11.200;2024-02-15T06:44:31;98336.59;;;20.02;42.18
50057;BME280;36875;49.468;11.200;2024-02-15T06:46:57;98346.00;;;20.10;42.13
50057;BME280;36875;49.468;11.200;2024-02-15T06:49:22;98342.28;;;20.06;42.11
50057;BME280;36875;49.468;11.200;2024-02-15T06:51:49;98340.63;;;20.05;42.17
50057;BME280;36875;49.468;11.200;2024-02-15T06:54:15;98345.22;;;20.09;42.50
50057;BME280;36875;49.468;11.200;2024-02-15T06:56:43;98346.69;;;20.01;42.49
50057;BME280;36875;49.468;11.200;2024-02-15T06:59:11;98349.75;;;20.00;42.33
50057;BME280;36875;49.468;11.200;2024-02-15T07:01:39;98356.41;;;19.94;42.47
50057;BME280;36875;49.468;11.200;2024-02-15T07:04:04;98350.41;;;19.92;42.71
50057;BME280;36875;49.468;11.200;2024-02-15T07:06:29;98352.13;;;19.88;42.34
50057;BME280;36875;49.468;11.200;2024-02-15T07:08:56;98353.03;;;19.83;42.79
50057;BME280;36875;49.468;11.200;2024-02-15T07:11:23;98346.75;;;19.82;42.83
50057;BME280;36875;49.468;11.200;2024-02-15T07:13:49;98336.41;;;19.79;42.85
50057;BME280;36875;49.468;11.200;2024-02-15T07:16:18;98341.16;;;19.74;42.56
50057;BME280;36875;49.468;11.200;2024-02-15T07:18:43;98342.78;;;19.75;42.70
50057;BME280;36875;49.468;11.200;2024-02-15T07:21:08;98343.09;;;19.73;42.54
50057;BME280;36875;49.468;11.200;2024-02-15T07:23:38;98342.56;;;19.71;42.75
50057;BME280;36875;49.468;11.200;2024-02-15T07:26:04;98339.00;;;19.71;42.63
50057;BME280;36875;49.468;11.200;2024-02-15T07:28:29;98334.44;;;19.66;42.68
50057;BME280;36875;49.468;11.200;2024-02-15T07:30:57;98346.78;;;19.63;42.68
50057;BME280;36875;49.468;11.200;2024-02-15T07:33:23;98333.72;;;19.60;42.71
50057;BME280;36875;49.468;11.200;2024-02-15T07:35:48;98340.59;;;19.58;43.03
50057;BME280;36875;49.468;11.200;2024-02-15T07:38:16;98343.09;;;19.54;42.66
50057;BME280;36875;49.468;11.200;2024-02-15T07:40:42;98346.13;;;19.53;42.94
50057;BME280;36875;49.468;11.200;2024-02-15T07:43:07;98347.00;;;19.48;42.46
50057;BME280;36875;49.468;11.200;2024-02-15T07:45:33;98340.75;;;19.48;42.65
50057;BME280;36875;49.468;11.200;2024-02-15T07:48:03;98340.22;;;19.45;42.71
50057;BME280;36875;49.468;11.200;2024-02-15T07:50:29;98345.19;;;19.43;42.81
50057;BME280;36875;49.468;11.200;2024-02-15T07:52:54;98343.03;;;19.40;42.63
50057;BME280;36875;49.468;11.200;2024-02-15T07:55:20;98351.50;;;19.39;42.54
50057;BME280;36875;49.468;11.200;2024-02-15T07:57:45;98346.66;;;19.36;42.28
50057;BME280;36875;49.468;11.200;2024-02-15T08:00:13;98347.47;;;19.36;42.71
50057;BME280;36875;49.468;11.200;2024-02-15T08:02:41;98344.81;;;19.31;42.71
50057;BME280;36875;49.468;11.200;2024-02-15T08:05:09;98350.56;;;19.30;42.42
50057;BME280;36875;49.468;11.200;2024-02-15T08:07:36;98346.22;;;19.29;42.41
50057;BME280;36875;49.468;11.200;2024-02-15T08:10:01;98350.88;;;19.28;42.79
50057;BME280;36875;49.468;11.200;2024-02-15T08:12:27;98342.16;;;19.26;42.76
50057;BME280;36875;49.468;11.200;2024-02-15T08:14:53;98346.00;;;19.25;42.67
50057;BME280;36875;49.468;11.200;2024-02-15T08:17:18;98343.56;;;19.23;42.81
50057;BME280;36875;49.468;11.200;2024-02-15T08:19:43;98335.66;;;19.22;42.33
50057;BME280;36875;49.468;11.200;2024-02-15T08:22:10;98347.72;;;19.21;42.38
50057;BME280;36875;49.468;11.200;2024-02-15T08:24:36;98337.09;;;19.19;42.43
50057;BME280;36875;49.468;11.200;2024-02-15T08:27:02;98336.28;;;19.19;42.73
50057;BME280;36875;49.468;11.200;2024-02-15T08:29:29;98331.91;;;19.18;42.57
50057;BME280;36875;49.468;11.200;2024-02-15T08:31:55;98327.56;;;19.17;42.32
50057;BME280;36875;49.468;11.200;2024-02-15T08:34:20;98324.03;;;19.16;42.62
50057;BME280;36875;49.468;11.200;2024-02-15T08:36:45;98328.69;;;19.16;42.62
50057;BME280;36875;49.468;11.200;2024-02-15T08:39:14;98325.44;;;19.14;42.71
50057;BME280;36875;49.468;11.200;2024-02-15T08:41:41;98326.53;;;19.13;42.25
50057;BME280;36875;49.468;11.200;2024-02-15T08:44:07;98318.63;;;19.11;42.22
50057;BME280;36875;49.468;11.200;2024-02-15T08:46:36;98323.28;;;19.11;42.44
50057;BME280;36875;49.468;11.200;2024-02-15T08:49:02;98314.59;;;19.09;42.35
50057;BME280;36875;49.468;11.200;2024-02-15T08:51:28;98322.78;;;19.09;42.63
50057;BME280;36875;49.468;11.200;2024-02-15T08:53:53;98314.88;;;19.07;42.47
50057;BME280;36875;49.468;11.200;2024-02-15T08:56:20;98315.19;;;19.05;42.56
50057;BME280;36875;49.468;11.200;2024-02-15T08:58:45;98320.63;;;19.05;42.34
50057;BME280;36875;49.468;11.200;2024-02-15T09:01:10;98316.28;;;19.04;42.30
50057;BME280;36875;49.468;11.200;2024-02-15T09:03:38;98314.66;;;19.03;42.58
50057;BME280;36875;49.468;11.200;2024-02-15T09:06:03;98320.13;;;19.03;42.36
50057;BME280;36875;49.468;11.200;2024-02-15T09:08:30;98314.94;;;19.02;42.68
50057;BME280;36875;49.468;11.200;2024-02-15T09:10:55;98316.06;;;19.01;42.64
50057;BME280;36875;49.468;11.200;2024-02-15T09:13:22;98311.72;;;19.00;42.28
50057;BME280;36875;49.468;11.200;2024-02-15T09:15:47;98308.19;;;18.99;42.41
50057;BME280;36875;49.468;11.200;2024-02-15T09:18:13;98313.63;;;18.99;42.71
50057;BME280;36875;49.468;11.200;2024-02-15T09:20:38;98309.28;;;18.98;42.59
50057;BME280;36875;49.468;11.200;2024-02-15T09:23:09;98312.00;;;18.98;42.69
50057;BME280;36875;49.468;11.200;2024-02-15T09:25:38;98309.59;;;18.97;42.64
50057;BME280;36875;49.468;11.200;2024-02-15T09:28:03;98306.88;;;18.97;42.33
50057;BME280;36875;49.468;11.200;2024-02-15T09:30:30;98303.31;;;18.96;42.36
50057;BME280;36875;49.468;11.200;2024-02-15T09:32:57;98303.59;;;18.95;42.43
50057;BME280;36875;49.468;11.200;2024-02-15T09:35:22;98306.31;;;18.95;42.79
50057;BME280;36875;49.468;11.200;2024-02-15T09:37:48;98295.72;;;18.93;42.46
50057;BME280;36875;49.468;11.200;2024-02-15T09:40:18;98301.47;;;18.92;42.39
50057;BME280;36875;49.468;11.200;2024-02-15T09:42:43;98304.19;;;18.92;42.42
50057;BME280;36875;49.468;11.200;2024-02-15T09:45:10;98298.75;;;18.92;42.63
50057;BME280;36875;49.468;11.200;2024-02-15T09:47:37;98303.38;;;18.91;42.28
50057;BME280;36875;49.468;11.200;2024-02-15T09:50:04;98301.78;;;18.90;42.49
50057;BME280;36875;49.468;11.200;2024-02-15T09:52:31;98304.50;;;18.90;42.67
50057;BME280;36875;49.468;11.200;2024-02-15T09:54:57;98307.22;;;18.90;42.30
50057;BME280;36875;49.468;11.200;2024-02-15T09:57:23;98311.03;;;18.89;42.62
50057;BME280;36875;49.468;11.200;2024-02-15T09:59:49;98316.78;;;18.87;42.50
50057;BME280;36875;49.468;11.200;2024-02-15T10:02:14;98317.63;;;18.88;42.42
50057;BME280;36875;49.468;11.200;2024-02-15T10:04:41;98313.25;;;18.87;42.43
50057;BME280;36875;49.468;11.200;2024-02-15T10:07:07;98309.94;;;18.90;42.37
50057;BME280;36875;49.468;11.200;2024-02-15T10:09:34;98305.75;;;18.98;42.39
50057;BME280;36875;49.468;11.200;2024-02-15T10:12:01;98307.91;;;19.01;42.26
50057;BME280;36875;49.468;11.200;2024-02-15T10:14:28;98310.34;;;19.02;42.36
50057;BME280;36875;49.468;11.200;2024-02-15T10:16:53;98298.88;;;19.00;42.28
50057;BME280;36875;49.468;11.200;2024-02-15T10:19:19;98295.63;;;18.98;42.68
50057;BME280;36875;49.468;11.200;2024-02-15T10:21:50;98286.81;;;19.06;42.42
50057;BME280;36875;49.468;11.200;2024-02-15T10:24:17;98281.84;;;19.09;42.43
50057;BME280;36875;49.468;11.200;2024-02-15T10:26:44;98286.63;;;19.17;42.30
50057;BME280;36875;49.468;11.200;2024-02-15T10:29:13;98285.91;;;19.30;41.76
50057;BME280;36875;49.468;11.200;2024-02-15T10:31:40;98282.41;;;19.43;41.61
50057;BME280;36875;49.468;11.200;2024-02-15T10:34:16;98289.22;;;19.60;41.18
50057;BME280;36875;49.468;11.200;2024-02-15T10:36:44;98282.22;;;19.73;40.86
50057;BME280;36875;49.468;11.200;2024-02-15T10:39:12;98280.91;;;19.84;40.73
50057;BME280;36875;49.468;11.200;2024-02-15T10:41:42;98279.50;;;19.87;40.81
50057;BME280;36875;49.468;11.200;2024-02-15T10:44:08;98278.50;;;19.96;40.38
50057;BME280;36875;49.468;11.200;2024-02-15T10:46:33;98272.13;;;19.87;40.90
50057;BME280;36875;49.468;11.200;2024-02-15T10:48:58;98278.00;;;19.94;40.87
50057;BME280;36875;49.468;11.200;2024-02-15T10:51:24;98268.38;;;19.97;40.43
50057;BME280;36875;49.468;11.200;2024-02-15T10:53:52;98255.16;;;20.04;40.39
50057;BME280;36875;49.468;11.200;2024-02-15T10:56:25;98250.28;;;20.15;40.40
50057;BME280;36875;49.468;11.200;2024-02-15T10:58:58;98243.09;;;20.19;40.16
50057;BME280;36875;49.468;11.200;2024-02-15T11:01:25;98239.97;;;20.26;39.93
50057;BME280;36875;49.468;11.200;2024-02-15T11:03:55;98239.97;;;20.26;39.79
50057;BME280;36875;49.468;11.200;2024-02-15T11:06:23;98227.09;;;20.26;40.09
50057;BME280;36875;49.468;11.200;2024-02-15T11:08:49;98216.38;;;20.30;40.03
50057;BME280;36875;49.468;11.200;2024-02-15T11:11:15;98219.09;;;20.30;40.06
50057;BME280;36875;49.468;11.200;2024-02-15T11:13:41;98219.59;;;20.32;39.98
50057;BME280;36875;49.468;11.200;2024-02-15T11:16:07;98217.47;;;20.29;39.79
50057;BME280;36875;49.468;11.200;2024-02-15T11:18:42;98214.75;;;20.29;40.07
50057;BME280;36875;49.468;11.200;2024-02-15T11:21:13;98207.03;;;20.31;40.28
50057;BME280;36875;49.468;11.200;2024-02-15T11:23:38;98209.47;;;20.32;40.03
50057;BME280;36875;49.468;11.200;2024-02-15T11:26:07;98207.78;;;20.22;40.25
50057;BME280;36875;49.468;11.200;2024-02-15T11:28:37;98208.88;;;20.21;40.25
50057;BME280;36875;49.468;11.200;2024-02-15T11:31:06;98202.41;;;20.17;40.25
50057;BME280;36875;49.468;11.200;2024-02-15T11:33:32;98198.69;;;20.13;40.43
50057;BME280;36875;49.468;11.200;2024-02-15T11:36:03;98198.97;;;20.12;40.75
50057;BME280;36875;49.468;11.200;2024-02-15T11:38:32;98196.53;;;20.10;40.77
50057;BME280;36875;49.468;11.200;2024-02-15T11:41:01;98197.66;;;20.09;40.69
50057;BME280;36875;49.468;11.200;2024-02-15T11:43:45;98190.88;;;20.07;40.89
50057;BME280;36875;49.468;11.200;2024-02-15T11:46:15;98186.84;;;20.04;40.88
50057;BME280;36875;49.468;11.200;2024-02-15T11:48:40;98184.91;;;20.05;40.80
50057;BME280;36875;49.468;11.200;2024-02-15T11:51:06;98178.06;;;20.07;40.54
50057;BME280;36875;49.468;11.200;2024-02-15T11:53:36;98181.16;;;20.14;40.63
50057;BME280;36875;49.468;11.200;2024-02-15T11:56:02;98185.00;;;20.13;40.75
50057;BME280;36875;49.468;11.200;2024-02-15T11:58:30;98188.03;;;20.12;40.72
50057;BME280;36875;49.468;11.200;2024-02-15T12:01:07;98189.19;;;20.11;40.62
50057;BME280;36875;49.468;11.200;2024-02-15T12:03:54;98185.63;;;20.10;40.82
50057;BME280;36875;49.468;11.200;2024-02-15T12:06:38;98180.66;;;20.12;40.74
50057;BME280;36875;49.468;11.200;2024-02-15T12:09:22;98179.06;;;20.11;40.62
50057;BME280;36875;49.468;11.200;2024-02-15T12:12:06;98168.41;;;20.10;40.92
50057;BME280;36875;49.468;11.200;2024-02-15T12:14:50;98171.84;;;20.15;40.47
50057;BME280;36875;49.468;11.200;2024-02-15T12:17:41;98164.34;;;20.21;40.80
50057;BME280;36875;49.468;11.200;2024-02-15T12:20:27;98161.13;;;20.19;40.44
50057;BME280;36875;49.468;11.200;2024-02-15T12:22:53;98155.13;;;20.31;40.41
50057;BME280;36875;49.468;11.200;2024-02-15T12:25:19;98148.13;;;20.38;40.38
50057;BME280;36875;49.468;11.200;2024-02-15T12:27:46;98154.91;;;20.41;40.00
50057;BME280;36875;49.468;11.200;2024-02-15T12:30:12;98149.75;;;20.39;40.24
50057;BME280;36875;49.468;11.200;2024-02-15T12:32:38;98148.31;;;20.42;40.10
50057;BME280;36875;49.468;11.200;2024-02-15T12:35:09;98146.69;;;20.41;40.31
50057;BME280;36875;49.468;11.200;2024-02-15T12:37:43;98138.38;;;20.46;40.22
50057;BME280;36875;49.468;11.200;2024-02-15T12:40:11;98131.19;;;20.50;40.27
50057;BME280;36875;49.468;11.200;2024-02-15T12:42:40;98126.00;;;20.63;39.82
50057;BME280;36875;49.468;11.200;2024-02-15T12:45:06;98123.69;;;20.78;39.66
50057;BME280;36875;49.468;11.200;2024-02-15T12:47:33;98121.63;;;20.84;39.69
50057;BME280;36875;49.468;11.200;2024-02-15T12:49:58;98122.16;;;20.86;39.79